Flight Track Log - Related Links

Times and Time Zones

All times are in EST time to prevent confusion due to time zone crossing. See the SWA704 flight status page for this flight to view local times or setup timezone preferences in your user account.

Time Position Orientation Groundspeed Altitude Reporting Facility
EST Latitude Longitude Course Direction KTS MPH feet Rate Location/Type
Wed 08:40:20 AM 41.8167 -87.7333 90° East 193 222 3,900  Level Chicago TRACON
Wed 08:40:53 AM 41.8075 -87.6819 103° East 218 251 4,200 1,326 Climbing Chicago Center
Wed 08:41:55 AM 41.8006 -87.5892 96° East 247 284 6,000 871 Climbing Chicago Center
Wed 08:42:57 AM 41.7931 -87.4822 95° East 265 305 6,000 1,366 Level Chicago Center
Wed 08:43:58 AM 41.7861 -87.3825 95° East 270 311 8,800 2,927 Climbing Chicago Center
Wed 08:45:00 AM 41.7500 -87.0330 90° East  Level FlightAware Approximate
Wed 08:45:00 AM 41.7764 -87.2531 96° East 327 376 12,000  Level Chicago Center
Wed 08:46:02 AM 41.7658 -87.1222 96° East 354 407 15,000 2,806 Climbing Chicago Center
Wed 08:47:04 AM 41.7614 -86.9836 92° East 373 429 17,800 1,902 Climbing Chicago Center
Wed 08:48:05 AM 41.7650 -86.8311 88° East 383 441 18,900 585 Climbing Chicago Center
Wed 08:49:07 AM 41.7653 -86.6969 90° East 397 457 19,000 48 Climbing Chicago Center
Wed 08:50:09 AM 41.7653 -86.5500 90° East 396 456 19,000 290 Level Chicago Center
Wed 08:51:11 AM 41.7681 -86.4111 88° East 377 434 19,600 919 Climbing Chicago Center
Wed 08:52:13 AM 41.7842 -86.2328 83° East 405 466 20,900 1,171 Climbing Chicago Center
Wed 08:53:14 AM 41.8150 -86.0806 75° East 420 483 22,000 976 Climbing Chicago Center
Wed 08:54:16 AM 41.8458 -85.9219 75° East 435 501 22,900 484 Climbing Chicago Center
Wed 08:55:18 AM 41.8753 -85.7672 76° East 428 493 23,000 48 Climbing Chicago Center
Wed 08:56:20 AM 41.9050 -85.6125 75° East 425 489 23,000  Level Chicago Center
Wed 08:57:22 AM 41.9336 -85.4572 76° East 425 489 23,000 -488 Level Chicago Center
Wed 08:58:23 AM 41.9631 -85.3025 76° East 424 488 22,000 -1,659 Descending Chicago Center
Wed 08:59:25 AM 41.9936 -85.1406 76° East 420 483 19,600 -1,452 Descending Chicago Center
Wed 09:00:27 AM 42.0206 -84.9925 76° East 412 474 19,000 -290 Descending Chicago Center
Wed 09:01:29 AM 42.0356 -84.8425 82° East 411 473 19,000  Level Chicago Center
Wed 09:02:31 AM 41.9919 -84.6661 108° East 414 476 19,000  Level Chicago Center
Wed 09:03:33 AM 41.9564 -84.5297 109° East 407 468 19,000 -484 Level Chicago Center
Wed 09:04:35 AM 41.9203 -84.3953 110° East 388 447 18,000 -1,744 Descending Chicago Center
Wed 09:05:30 AM 41.8864 -84.2639 109° East 376 433 15,600 -2,677 Descending Cleveland Center
Wed 09:05:40 AM 41.8786 -84.2414 115° Southeast 384 442 15,100 -2,620 Descending Cleveland Center
Wed 09:06:41 AM 41.8403 -84.0981 110° East 382 440 12,500 -2,000 Descending Cleveland Center
Wed 09:07:34 AM 41.8492 -83.9978 83° East 340 391 11,300 -1,770 Descending Cleveland Center
Wed 09:07:42 AM 41.8586 -83.9803 54° Northeast 311 358 10,700 -2,032 Descending Cleveland Center
Wed 09:08:36 AM 41.8958 -83.8989 58° Northeast 323 372 9,200 -1,745 Descending Cleveland Center
Wed 09:08:37 AM 41.8956 -83.8903 92° East 318 366 9,100 -1,279 Descending Cleveland Center
Wed 09:09:37 AM 41.9022 -83.7856 85° East 308 354 7,900 -1,279 Descending Cleveland Center
Wed 09:09:38 AM 41.9028 -83.7764 85° East 296 341 7,800 -1,355 Descending Cleveland Center
Wed 09:10:39 AM 41.9297 -83.6792 70° East 264 304 6,500 -1,377 Descending Cleveland Center
Wed 09:11:40 AM 41.9600 -83.5881 66° East 255 293 5,000 -1,258 Descending Cleveland Center
Wed 09:11:41 AM 41.9553 -83.6014 245° Southwest 269 310 5,200  Climbing Cleveland Center
Wed 09:12:41 AM 42.0069 -83.5272 47° Northeast 224 258 5,000 -194 Descending Cleveland Center
Wed 09:12:43 AM 41.9964 -83.5331 202° Southwest 244 281 5,000 -689 Level Cleveland Center
Wed 09:13:42 AM 42.0558 -83.4922 27° Northeast 187 215 4,300 -774 Descending Cleveland Center
Wed 09:13:45 AM 42.0564 -83.4911 56° Northeast 208 239 4,200 -1,015 Descending Cleveland Center
Wed 09:14:47 AM 42.0997 -83.4589 29° Northeast 192 221 3,200 -1,031 Descending Cleveland Center
Wed 09:14:49 AM 42.1047 -83.4569 16° North 167 192 3,100 -1,053 Descending Cleveland Center
Wed 09:15:44 AM 42.1383 -83.4308 30° Northeast 136 157 2,200 -900 Descending Cleveland Center
Wed 09:15:49 AM 42.1367 -83.4319 206° Southwest 171 197 2,200 -590 Level Cleveland Center
Wed 09:16:45 AM 42.1672 -83.4094 29° Northeast 117 135 1,600 -581 Descending Cleveland Center
Wed 09:16:51 AM 42.1656 -83.4103 200° South 142 163 1,600 -787 Level Cleveland Center
Wed 09:17:46 AM 42.1961 -83.3883 28° Northeast 117 135 800 -677 Descending Cleveland Center
Wed 09:17:53 AM 42.1950 -83.3892 209° Southwest 127 146 900 857 Climbing Cleveland Center
Wed 09:19:00 AM 42.2000 -83.3500 56° Northeast  Level FlightAware Approximate
Wed 09:26:00 AM 42.2124 -83.3534 56° Northeast  Level Estimated
Wed 09:27:00 AM 42.2124 -83.3534 56° Northeast  Level Estimated

Login

Don't have an account? Register now (free) for customized features, flight alerts, and more!